Time;durP1;ratioP1;P1;durP2;ratioP2;P2;SDS_P1;SDS_P2;PMS_P1;PMS_P2;Temp;Humidity;BMP_temperature;BMP_pressure;BME280_temperature;BME280_humidity;BME280_pressure;Samples;Min_cycle;Max_cycle;Signal;HPM_P1;HPM_P2
2023/07/26 00:01:28;0.00;0.00;0.62;0.00;0.00;0.62;2.50;1.50;;;28.90;25.30;;;;;;2268734;61;20804;-63
2023/07/26 00:04:14;0.00;0.00;0.62;0.00;0.00;0.62;3.50;1.70;;;28.90;25.30;;;;;;2268380;61;20413;-62
2023/07/26 00:06:58;0.00;0.00;0.62;0.00;0.00;0.62;1.77;1.33;;;28.90;25.30;;;;;;2268366;61;20401;-61
2023/07/26 00:09:43;0.00;0.00;0.62;0.00;0.00;0.62;2.23;1.40;;;28.80;25.30;;;;;;2264502;61;20382;-62
2023/07/26 00:12:28;0.00;0.00;0.62;0.00;0.00;0.62;2.33;1.53;;;28.80;25.30;;;;;;2267955;61;20906;-63
2023/07/26 00:15:12;0.00;0.00;0.62;0.00;0.00;0.62;2.63;1.87;;;28.80;25.30;;;;;;2268844;61;20363;-62
2023/07/26 00:17:57;0.00;0.00;0.62;0.00;0.00;0.62;2.40;1.23;;;28.80;25.20;;;;;;2268608;61;20410;-60
2023/07/26 00:20:43;0.00;0.00;0.62;0.00;0.00;0.62;2.50;1.57;;;28.80;25.20;;;;;;2268029;61;20359;-61
2023/07/26 00:23:28;0.00;0.00;0.62;0.00;0.00;0.62;2.73;1.67;;;28.80;25.20;;;;;;2268459;61;20359;-63
2023/07/26 00:26:12;0.00;0.00;0.62;0.00;0.00;0.62;1.87;1.37;;;28.80;25.30;;;;;;2266581;61;20407;-62
2023/07/26 00:28:57;0.00;0.00;0.62;0.00;0.00;0.62;2.10;1.50;;;28.80;25.20;;;;;;2263820;61;20917;-62
2023/07/26 00:31:42;0.00;0.00;0.62;0.00;0.00;0.62;1.93;1.20;;;28.80;25.20;;;;;;2261342;61;20773;-60
2023/07/26 00:34:27;0.00;0.00;0.62;0.00;0.00;0.62;1.70;1.00;;;28.80;25.20;;;;;;2264195;61;20411;-62
2023/07/26 00:37:13;0.00;0.00;0.62;0.00;0.00;0.62;2.33;1.40;;;28.80;25.30;;;;;;2261282;61;20392;-62
2023/07/26 00:39:58;0.00;0.00;0.62;0.00;0.00;0.62;2.00;1.40;;;28.80;25.20;;;;;;2260669;61;20413;-62
2023/07/26 00:42:42;0.00;0.00;0.62;0.00;0.00;0.62;2.57;1.30;;;28.70;25.20;;;;;;2263921;61;20393;-62
2023/07/26 00:45:29;0.00;0.00;0.62;0.00;0.00;0.62;1.97;1.10;;;28.70;25.20;;;;;;2264103;61;20356;-61
2023/07/26 00:48:15;0.00;0.00;0.62;0.00;0.00;0.62;2.17;1.17;;;28.80;25.30;;;;;;2260850;61;20380;-63
2023/07/26 00:51:00;0.00;0.00;0.62;0.00;0.00;0.62;1.83;1.20;;;28.80;25.30;;;;;;2264156;61;20360;-61
2023/07/26 00:53:48;0.00;0.00;0.62;0.00;0.00;0.62;2.20;1.27;;;28.80;25.20;;;;;;2261143;61;20472;-62
2023/07/26 00:56:34;0.00;0.00;0.62;0.00;0.00;0.62;1.83;1.10;;;28.70;25.20;;;;;;2264035;61;20388;-61
2023/07/26 00:59:19;0.00;0.00;0.62;0.00;0.00;0.62;2.10;1.47;;;28.80;25.20;;;;;;2260706;61;20415;-63
2023/07/26 01:02:04;0.00;0.00;0.62;0.00;0.00;0.62;2.00;1.30;;;28.70;25.20;;;;;;2264544;61;20372;-61
2023/07/26 01:04:50;0.00;0.00;0.62;0.00;0.00;0.62;1.70;1.20;;;28.70;25.20;;;;;;2263990;61;20837;-63
2023/07/26 01:07:53;0.00;0.00;0.62;0.00;0.00;0.62;4.20;1.20;;;28.70;25.20;;;;;;2264373;61;20857;-62
2023/07/26 01:10:48;0.00;0.00;0.62;0.00;0.00;0.62;1.90;1.10;;;28.70;25.20;;;;;;2264264;61;20876;-62
2023/07/26 01:13:44;0.00;0.00;0.62;0.00;0.00;0.62;1.80;1.20;;;28.70;25.20;;;;;;2264042;61;20388;-63
2023/07/26 01:16:29;0.00;0.00;0.62;0.00;0.00;0.62;1.80;1.30;;;28.70;25.20;;;;;;2264250;61;20372;-62
2023/07/26 01:19:14;0.00;0.00;0.62;0.00;0.00;0.62;2.73;1.33;;;28.70;25.20;;;;;;2263218;61;20392;-62
2023/07/26 01:22:00;0.00;0.00;0.62;0.00;0.00;0.62;2.20;1.30;;;28.70;25.20;;;;;;2264103;61;20386;-64
2023/07/26 01:24:45;0.00;0.00;0.62;0.00;0.00;0.62;1.70;1.30;;;28.60;25.10;;;;;;2260847;61;20621;-62
2023/07/26 01:27:29;0.00;0.00;0.62;0.00;0.00;0.62;2.90;1.23;;;28.70;25.20;;;;;;2267628;61;20426;-63
2023/07/26 01:30:14;0.00;0.00;0.62;0.00;0.00;0.62;2.20;1.23;;;28.70;25.20;;;;;;2267828;61;20902;-63
2023/07/26 01:33:03;0.00;0.00;0.62;0.00;0.00;0.62;2.07;1.20;;;28.70;25.20;;;;;;2268199;61;20403;-63
2023/07/26 01:35:48;0.00;0.00;0.62;0.00;0.00;0.62;2.13;1.30;;;28.70;25.20;;;;;;2268040;61;20765;-63
2023/07/26 01:38:35;0.00;0.00;0.62;0.00;0.00;0.62;3.10;1.37;;;28.60;25.10;;;;;;2267871;61;20387;-62
2023/07/26 01:41:20;0.00;0.00;0.62;0.00;0.00;0.62;1.70;1.10;;;28.60;25.10;;;;;;2267818;61;20402;-61
2023/07/26 01:44:05;0.00;0.00;0.62;0.00;0.00;0.62;1.70;1.10;;;28.60;25.10;;;;;;2268261;61;20456;-61
2023/07/26 01:46:52;0.00;0.00;0.62;0.00;0.00;0.62;2.40;1.30;;;28.60;25.70;;;;;;2265023;61;20355;-62
2023/07/26 01:49:37;0.00;0.00;0.62;0.00;0.00;0.62;2.30;1.30;;;28.60;25.10;;;;;;2264081;61;20393;-62
2023/07/26 01:52:24;0.00;0.00;0.62;0.00;0.00;0.62;2.70;1.47;;;28.60;25.10;;;;;;2268412;61;20751;-62
2023/07/26 01:55:10;0.00;0.00;0.62;0.00;0.00;0.62;1.90;1.40;;;28.60;25.10;;;;;;2268469;61;20364;-63
2023/07/26 01:57:55;0.00;0.00;0.62;0.00;0.00;0.62;2.07;1.20;;;28.60;25.10;;;;;;2264875;61;20817;-62
2023/07/26 02:00:39;0.00;0.00;0.62;0.00;0.00;0.62;2.07;1.30;;;28.60;25.10;;;;;;2265140;61;20959;-62
2023/07/26 02:03:24;0.00;0.00;0.62;0.00;0.00;0.62;1.40;0.90;;;28.60;25.10;;;;;;2267800;61;20501;-62
2023/07/26 02:06:09;0.00;0.00;0.62;0.00;0.00;0.62;1.90;1.20;;;28.50;25.10;;;;;;2265256;61;20448;-62
2023/07/26 02:08:54;0.00;0.00;0.62;0.00;0.00;0.62;1.83;1.23;;;28.50;25.10;;;;;;2264713;61;20386;-62
2023/07/26 02:11:40;0.00;0.00;0.62;0.00;0.00;0.62;1.77;1.13;;;28.60;25.10;;;;;;2264471;61;20356;-62
2023/07/26 02:14:24;0.00;0.00;0.62;0.00;0.00;0.62;1.63;1.13;;;28.50;25.10;;;;;;2268286;61;20471;-63
2023/07/26 02:17:09;0.00;0.00;0.62;0.00;0.00;0.62;2.40;1.17;;;28.60;25.10;;;;;;2268210;61;20390;-62
2023/07/26 02:19:53;0.00;0.00;0.62;0.00;0.00;0.62;2.10;1.40;;;28.50;25.10;;;;;;2267649;61;20798;-62
2023/07/26 02:22:38;0.00;0.00;0.62;0.00;0.00;0.62;3.00;1.13;;;28.50;25.10;;;;;;2265146;61;20374;-62
2023/07/26 02:25:23;0.00;0.00;0.62;0.00;0.00;0.62;1.60;1.00;;;28.50;25.10;;;;;;2264307;61;20397;-62
2023/07/26 02:28:09;0.00;0.00;0.62;0.00;0.00;0.62;1.90;1.27;;;28.50;25.10;;;;;;2261029;61;20379;-62
2023/07/26 02:30:55;0.00;0.00;0.62;0.00;0.00;0.62;1.90;1.10;;;28.50;25.10;;;;;;2260871;61;20447;-62
2023/07/26 02:33:41;0.00;0.00;0.62;0.00;0.00;0.62;2.30;1.10;;;28.50;25.00;;;;;;2260398;61;20920;-63
2023/07/26 02:36:26;0.00;0.00;0.62;0.00;0.00;0.62;1.73;1.23;;;28.50;25.10;;;;;;2263921;61;20887;-63
2023/07/26 02:39:13;0.00;0.00;0.62;0.00;0.00;0.62;1.80;0.97;;;28.50;25.10;;;;;;2263535;61;20472;-63
2023/07/26 02:41:57;0.00;0.00;0.62;0.00;0.00;0.62;1.90;1.20;;;28.50;25.00;;;;;;2263801;61;20359;-63
2023/07/26 02:44:45;0.00;0.00;0.62;0.00;0.00;0.62;2.90;1.00;;;28.50;25.00;;;;;;2264095;61;20926;-63
2023/07/26 02:47:32;0.00;0.00;0.62;0.00;0.00;0.62;1.70;1.07;;;28.50;25.00;;;;;;2263728;61;20429;-63
2023/07/26 02:50:17;0.00;0.00;0.62;0.00;0.00;0.62;1.77;1.10;;;28.50;25.10;;;;;;2264032;61;20403;-64
2023/07/26 02:53:02;0.00;0.00;0.62;0.00;0.00;0.62;2.10;1.20;;;28.50;25.10;;;;;;2261356;61;20765;-63
2023/07/26 02:55:47;0.00;0.00;0.62;0.00;0.00;0.62;2.07;1.10;;;28.50;25.10;;;;;;2261186;61;20380;-63
2023/07/26 02:58:32;0.00;0.00;0.62;0.00;0.00;0.62;2.00;1.17;;;28.50;25.10;;;;;;2264335;61;20430;-63
2023/07/26 03:01:18;0.00;0.00;0.62;0.00;0.00;0.62;1.80;1.07;;;28.40;25.00;;;;;;2264676;61;20364;-63
2023/07/26 03:04:03;0.00;0.00;0.62;0.00;0.00;0.62;1.60;0.90;;;28.40;25.00;;;;;;2264234;61;20404;-63
2023/07/26 03:06:50;0.00;0.00;0.62;0.00;0.00;0.62;1.50;1.03;;;28.40;25.00;;;;;;2264794;61;20356;-63
2023/07/26 03:09:35;0.00;0.00;0.62;0.00;0.00;0.62;1.77;1.00;;;28.40;25.00;;;;;;2264020;61;20786;-63
2023/07/26 03:12:20;0.00;0.00;0.62;0.00;0.00;0.62;2.63;1.30;;;28.40;25.00;;;;;;2264672;61;20402;-64
2023/07/26 03:15:06;0.00;0.00;0.62;0.00;0.00;0.62;2.37;1.10;;;28.40;25.00;;;;;;2261402;61;20970;-63
2023/07/26 03:17:52;0.00;0.00;0.62;0.00;0.00;0.62;2.10;1.17;;;28.40;25.00;;;;;;2261180;61;20387;-63
2023/07/26 03:20:37;0.00;0.00;0.62;0.00;0.00;0.62;1.80;1.40;;;28.40;25.00;;;;;;2264311;61;20409;-64
2023/07/26 03:23:21;0.00;0.00;0.62;0.00;0.00;0.62;1.80;1.13;;;28.40;25.00;;;;;;2264878;61;20617;-63
2023/07/26 03:26:07;0.00;0.00;0.62;0.00;0.00;0.62;2.27;1.50;;;28.40;25.00;;;;;;2266008;61;20367;-63
2023/07/26 03:28:51;0.00;0.00;0.62;0.00;0.00;0.62;2.40;1.10;;;28.40;25.00;;;;;;2268242;61;20467;-63
2023/07/26 03:31:36;0.00;0.00;0.62;0.00;0.00;0.62;1.60;1.13;;;28.40;25.00;;;;;;2268554;61;20378;-63
2023/07/26 03:34:22;0.00;0.00;0.62;0.00;0.00;0.62;1.70;1.20;;;28.40;25.00;;;;;;2265313;61;20387;-63
2023/07/26 03:37:08;0.00;0.00;0.62;0.00;0.00;0.62;2.23;1.20;;;28.40;25.00;;;;;;2268840;61;20364;-63
2023/07/26 03:39:53;0.00;0.00;0.62;0.00;0.00;0.62;1.70;1.00;;;28.40;25.00;;;;;;2268012;61;20933;-63
2023/07/26 03:42:37;0.00;0.00;0.62;0.00;0.00;0.62;1.70;1.00;;;28.40;25.00;;;;;;2268502;61;20359;-63
2023/07/26 03:45:22;0.00;0.00;0.62;0.00;0.00;0.62;1.70;1.33;;;28.40;25.00;;;;;;2268808;61;20413;-64
2023/07/26 03:48:07;0.00;0.00;0.62;0.00;0.00;0.62;2.27;1.20;;;28.30;25.00;;;;;;2268161;61;20426;-63
2023/07/26 03:50:53;0.00;0.00;0.62;0.00;0.00;0.62;2.10;1.50;;;28.30;25.00;;;;;;2268714;61;21032;-63
2023/07/26 03:53:38;0.00;0.00;0.62;0.00;0.00;0.62;1.67;1.03;;;28.30;25.00;;;;;;2268374;61;20387;-63
2023/07/26 03:56:23;0.00;0.00;0.62;0.00;0.00;0.62;2.00;1.03;;;28.30;25.00;;;;;;2268494;61;20431;-64
2023/07/26 03:59:08;0.00;0.00;0.62;0.00;0.00;0.62;2.13;1.10;;;28.30;24.90;;;;;;2268132;61;20379;-64
2023/07/26 04:01:53;0.00;0.00;0.62;0.00;0.00;0.62;2.43;1.33;;;28.30;24.90;;;;;;2264776;61;21029;-63
2023/07/26 04:04:37;0.00;0.00;0.62;0.00;0.00;0.62;1.67;1.00;;;28.30;24.90;;;;;;2265306;61;20958;-63
2023/07/26 04:07:23;0.00;0.00;0.62;0.00;0.00;0.62;2.00;1.20;;;28.30;24.90;;;;;;2265687;61;20383;-64
2023/07/26 04:10:09;0.00;0.00;0.62;0.00;0.00;0.62;1.80;1.20;;;28.30;24.90;;;;;;2267744;61;20363;-63
2023/07/26 04:12:54;0.00;0.00;0.62;0.00;0.00;0.62;1.77;1.10;;;28.30;24.90;;;;;;2268591;61;20988;-64
2023/07/26 04:15:39;0.00;0.00;0.62;0.00;0.00;0.62;1.90;1.30;;;28.30;24.90;;;;;;2268654;61;20891;-63
2023/07/26 04:18:23;0.00;0.00;0.62;0.00;0.00;0.62;2.20;1.30;;;28.30;24.90;;;;;;2268009;61;20907;-62
2023/07/26 04:21:13;0.00;0.00;0.62;0.00;0.00;0.62;2.37;1.23;;;28.30;24.90;;;;;;2268358;61;20364;-63
2023/07/26 04:24:00;0.00;0.00;0.62;0.00;0.00;0.62;2.13;1.00;;;28.30;24.90;;;;;;2267951;61;20393;-63
2023/07/26 04:26:44;0.00;0.00;0.62;0.00;0.00;0.62;2.07;1.27;;;28.30;24.90;;;;;;2265742;61;20433;-63
2023/07/26 04:29:29;0.00;0.00;0.62;0.00;0.00;0.62;2.10;1.40;;;28.30;25.50;;;;;;2264181;61;20883;-64
2023/07/26 04:32:13;0.00;0.00;0.62;0.00;0.00;0.62;2.90;1.80;;;28.30;24.90;;;;;;2263769;61;20363;-67
2023/07/26 04:34:58;0.00;0.00;0.62;0.00;0.00;0.62;2.10;1.17;;;28.30;24.90;;;;;;2264381;61;20499;-62
2023/07/26 04:37:43;0.00;0.00;0.62;0.00;0.00;0.62;2.30;1.47;;;28.30;24.90;;;;;;2264532;61;20423;-64
2023/07/26 04:40:28;0.00;0.00;0.62;0.00;0.00;0.62;1.73;1.20;;;28.30;24.90;;;;;;2260634;61;20360;-64
2023/07/26 04:43:14;0.00;0.00;0.62;0.00;0.00;0.62;2.53;1.30;;;28.30;24.90;;;;;;2264445;61;20391;-61
2023/07/26 04:45:58;0.00;0.00;0.62;0.00;0.00;0.62;2.40;1.43;;;28.30;24.90;;;;;;2264107;61;20371;-63
2023/07/26 04:48:43;0.00;0.00;0.62;0.00;0.00;0.62;1.80;1.30;;;28.30;24.90;;;;;;2264166;61;20383;-63
2023/07/26 04:51:28;0.00;0.00;0.62;0.00;0.00;0.62;2.10;1.57;;;28.20;24.80;;;;;;2261149;61;20360;-61
2023/07/26 04:54:12;0.00;0.00;0.62;0.00;0.00;0.62;1.97;1.53;;;28.20;24.80;;;;;;2263892;61;20422;-62
2023/07/26 04:56:58;0.00;0.00;0.62;0.00;0.00;0.62;2.33;1.67;;;28.20;24.90;;;;;;2264473;61;20406;-63
2023/07/26 04:59:43;0.00;0.00;0.62;0.00;0.00;0.62;2.13;1.50;;;28.20;24.80;;;;;;2260692;61;20364;-60
2023/07/26 05:02:28;0.00;0.00;0.62;0.00;0.00;0.62;2.10;1.57;;;28.20;24.90;;;;;;2264117;61;20380;-64
2023/07/26 05:05:13;0.00;0.00;0.62;0.00;0.00;0.62;2.17;1.50;;;28.20;24.90;;;;;;2264393;61;20826;-64
2023/07/26 05:07:57;0.00;0.00;0.62;0.00;0.00;0.62;3.50;1.80;;;28.20;24.90;;;;;;2263994;61;20384;-63
2023/07/26 05:10:42;0.00;0.00;0.62;0.00;0.00;0.62;2.10;1.50;;;28.20;24.80;;;;;;2264175;61;20373;-63
2023/07/26 05:13:28;0.00;0.00;0.62;0.00;0.00;0.62;2.37;1.60;;;28.20;24.90;;;;;;2264295;61;20457;-63
2023/07/26 05:16:13;0.00;0.00;0.62;0.00;0.00;0.62;2.40;1.73;;;28.20;24.80;;;;;;2263926;61;20364;-63
2023/07/26 05:18:59;0.00;0.00;0.62;0.00;0.00;0.62;2.10;1.70;;;28.20;24.90;;;;;;2263802;61;20470;-64
2023/07/26 05:21:43;0.00;0.00;0.62;0.00;0.00;0.62;1.87;1.43;;;28.20;24.80;;;;;;2264124;61;20888;-63
2023/07/26 05:24:28;0.00;0.00;0.62;0.00;0.00;0.62;2.37;1.63;;;28.10;24.80;;;;;;2263867;61;20887;-59
2023/07/26 05:27:13;0.00;0.00;0.62;0.00;0.00;0.62;2.40;1.37;;;28.20;24.90;;;;;;2267669;61;20887;-63
2023/07/26 05:29:59;0.00;0.00;0.62;0.00;0.00;0.62;2.20;1.80;;;28.20;24.80;;;;;;2267626;61;20363;-63
2023/07/26 05:32:44;0.00;0.00;0.62;0.00;0.00;0.62;2.93;1.87;;;28.20;24.80;;;;;;2268009;61;20986;-63
2023/07/26 05:35:29;0.00;0.00;0.62;0.00;0.00;0.62;2.40;1.70;;;28.20;24.80;;;;;;2268237;61;20359;-66
2023/07/26 05:38:14;0.00;0.00;0.62;0.00;0.00;0.62;3.50;2.10;;;28.20;24.90;;;;;;2267368;61;20378;-64
2023/07/26 05:41:03;0.00;0.00;0.62;0.00;0.00;0.62;2.17;1.40;;;28.20;24.80;;;;;;2268230;61;20371;-64
2023/07/26 05:43:48;0.00;0.00;0.62;0.00;0.00;0.62;2.80;1.60;;;28.20;24.90;;;;;;2264818;61;20351;-64
2023/07/26 05:46:34;0.00;0.00;0.62;0.00;0.00;0.62;1.80;1.40;;;28.20;24.90;;;;;;2267917;61;20385;-62
2023/07/26 05:49:19;0.00;0.00;0.62;0.00;0.00;0.62;2.70;1.83;;;28.20;24.90;;;;;;2267777;61;20426;-63
2023/07/26 05:52:04;0.00;0.00;0.62;0.00;0.00;0.62;2.77;1.90;;;28.20;24.90;;;;;;2268135;61;20390;-64
2023/07/26 05:54:49;0.00;0.00;0.62;0.00;0.00;0.62;2.90;1.73;;;28.20;24.90;;;;;;2268066;61;20925;-62
2023/07/26 05:57:34;0.00;0.00;0.62;0.00;0.00;0.62;3.10;2.10;;;28.10;24.80;;;;;;2268159;61;20383;-64
2023/07/26 06:00:19;0.00;0.00;0.62;0.00;0.00;0.62;2.10;1.47;;;28.10;24.80;;;;;;2267471;61;20443;-63
2023/07/26 06:03:06;0.00;0.00;0.62;0.00;0.00;0.62;2.53;1.67;;;28.10;24.80;;;;;;2268250;61;20359;-62
2023/07/26 06:05:51;0.00;0.00;0.62;0.00;0.00;0.62;2.07;1.60;;;28.10;24.80;;;;;;2268341;61;20359;-61
2023/07/26 06:08:35;0.00;0.00;0.62;0.00;0.00;0.62;2.13;1.60;;;28.20;24.90;;;;;;2267297;61;20382;-62
2023/07/26 06:11:20;0.00;0.00;0.62;0.00;0.00;0.62;2.30;1.50;;;28.10;24.80;;;;;;2267988;61;20895;-64
2023/07/26 06:14:04;0.00;0.00;0.62;0.00;0.00;0.62;2.80;1.63;;;28.10;24.80;;;;;;2268252;61;20391;-62
2023/07/26 06:16:49;0.00;0.00;0.62;0.00;0.00;0.62;3.17;1.50;;;28.10;24.80;;;;;;2267874;61;20882;-62
2023/07/26 06:19:35;0.00;0.00;0.62;0.00;0.00;0.62;2.10;1.47;;;28.10;24.80;;;;;;2267484;61;20355;-64
2023/07/26 06:22:20;0.00;0.00;0.62;0.00;0.00;0.62;1.90;1.50;;;28.20;24.90;;;;;;2267836;61;20395;-63
2023/07/26 06:25:05;0.00;0.00;0.62;0.00;0.00;0.62;2.57;1.63;;;28.10;24.90;;;;;;2267933;61;20759;-63
2023/07/26 06:27:50;0.00;0.00;0.62;0.00;0.00;0.62;2.47;1.93;;;28.10;24.80;;;;;;2501367;53;20368;-69
2023/07/26 06:30:34;0.00;0.00;0.62;0.00;0.00;0.62;2.63;1.80;;;28.20;25.40;;;;;;2263527;61;20806;-61
2023/07/26 06:33:19;0.00;0.00;0.62;0.00;0.00;0.62;2.40;1.80;;;28.10;24.90;;;;;;2260859;61;20749;-61
2023/07/26 06:36:06;0.00;0.00;0.62;0.00;0.00;0.62;2.90;1.90;;;28.10;24.90;;;;;;2264033;61;20414;-61
2023/07/26 06:38:51;0.00;0.00;0.62;0.00;0.00;0.62;2.57;1.83;;;28.10;24.90;;;;;;2263635;61;20439;-63
2023/07/26 06:41:36;0.00;0.00;0.62;0.00;0.00;0.62;2.30;1.80;;;28.10;24.90;;;;;;2264279;61;20426;-63
2023/07/26 06:44:21;0.00;0.00;0.62;0.00;0.00;0.62;2.50;1.80;;;28.20;24.90;;;;;;2263519;61;20360;-62
2023/07/26 06:47:06;0.00;0.00;0.62;0.00;0.00;0.62;3.30;2.20;;;28.20;24.90;;;;;;2263912;61;20380;-63
2023/07/26 06:49:51;0.00;0.00;0.62;0.00;0.00;0.62;3.80;1.87;;;28.20;25.00;;;;;;2263687;61;20442;-62
2023/07/26 06:52:37;0.00;0.00;0.62;0.00;0.00;0.62;2.70;1.77;;;28.20;25.00;;;;;;2263454;61;20793;-63
2023/07/26 06:55:22;0.00;0.00;0.62;0.00;0.00;0.62;2.73;1.80;;;28.10;24.90;;;;;;2264102;61;20459;-66
2023/07/26 06:58:07;0.00;0.00;0.62;0.00;0.00;0.62;2.83;2.23;;;28.10;24.90;;;;;;2263954;61;20872;-62
2023/07/26 07:00:52;0.00;0.00;0.62;0.00;0.00;0.62;3.27;1.83;;;28.20;25.00;;;;;;2263409;61;20360;-63
2023/07/26 07:03:37;0.00;0.00;0.62;0.00;0.00;0.62;2.93;2.03;;;28.10;24.90;;;;;;2263959;61;20411;-62
2023/07/26 07:06:22;0.00;0.00;0.62;0.00;0.00;0.62;2.80;2.03;;;28.10;24.90;;;;;;2263610;61;20359;-60
2023/07/26 07:09:08;0.00;0.00;0.62;0.00;0.00;0.62;2.87;1.90;;;28.10;24.90;;;;;;2260239;61;20700;-63
2023/07/26 07:11:52;0.00;0.00;0.62;0.00;0.00;0.62;2.27;1.97;;;28.10;24.90;;;;;;2264037;61;20407;-67
2023/07/26 07:14:37;0.00;0.00;0.62;0.00;0.00;0.62;2.33;1.83;;;28.10;24.90;;;;;;2263332;61;20383;-63
2023/07/26 07:17:21;0.00;0.00;0.62;0.00;0.00;0.62;2.90;2.10;;;28.20;25.00;;;;;;2264153;61;20383;-63
2023/07/26 07:20:08;0.00;0.00;0.62;0.00;0.00;0.62;3.20;2.03;;;28.10;24.90;;;;;;2263478;61;20360;-63
2023/07/26 07:22:52;0.00;0.00;0.62;0.00;0.00;0.62;2.47;1.60;;;28.10;25.00;;;;;;2263497;61;20399;-62
2023/07/26 07:25:39;0.00;0.00;0.62;0.00;0.00;0.62;2.27;1.53;;;28.10;25.00;;;;;;2264809;61;20937;-62
2023/07/26 07:28:24;0.00;0.00;0.62;0.00;0.00;0.62;2.30;1.73;;;28.10;24.90;;;;;;2267285;61;20425;-69
2023/07/26 07:31:09;0.00;0.00;0.62;0.00;0.00;0.62;3.07;1.70;;;28.10;25.00;;;;;;2267960;61;20362;-62
2023/07/26 07:33:53;0.00;0.00;0.62;0.00;0.00;0.62;2.40;1.77;;;28.10;25.00;;;;;;2268175;61;20425;-64
2023/07/26 07:36:38;0.00;0.00;0.62;0.00;0.00;0.62;2.27;1.63;;;28.10;25.00;;;;;;2267647;61;20381;-62
2023/07/26 07:39:23;0.00;0.00;0.62;0.00;0.00;0.62;2.47;1.67;;;28.10;25.00;;;;;;2268525;61;20359;-62
2023/07/26 07:42:09;0.00;0.00;0.62;0.00;0.00;0.62;2.43;1.80;;;28.10;25.00;;;;;;2268877;61;20401;-62
2023/07/26 07:44:53;0.00;0.00;0.62;0.00;0.00;0.62;1.93;1.40;;;28.10;25.50;;;;;;2268159;61;20396;-62
2023/07/26 07:47:38;0.00;0.00;0.62;0.00;0.00;0.62;2.10;1.37;;;28.10;25.00;;;;;;2268675;61;20386;-61
2023/07/26 07:50:23;0.00;0.00;0.62;0.00;0.00;0.62;1.80;1.60;;;28.10;25.00;;;;;;2268160;61;20358;-63
2023/07/26 07:53:10;0.00;0.00;0.62;0.00;0.00;0.62;1.97;1.60;;;28.10;25.00;;;;;;2268274;61;20827;-64
2023/07/26 07:55:55;0.00;0.00;0.62;0.00;0.00;0.62;2.00;1.50;;;28.10;25.00;;;;;;2268510;61;20366;-62
2023/07/26 07:58:41;0.00;0.00;0.62;0.00;0.00;0.62;2.23;1.43;;;28.10;25.00;;;;;;2267749;61;20375;-63
2023/07/26 08:01:27;0.00;0.00;0.62;0.00;0.00;0.62;1.90;1.40;;;28.10;25.00;;;;;;2268357;61;20394;-62
2023/07/26 08:04:12;0.00;0.00;0.62;0.00;0.00;0.62;2.47;1.60;;;28.10;25.00;;;;;;2265248;61;20355;-62
2023/07/26 08:06:56;0.00;0.00;0.62;0.00;0.00;0.62;2.00;1.80;;;28.10;25.00;;;;;;2268182;61;20362;-63
2023/07/26 08:09:41;0.00;0.00;0.62;0.00;0.00;0.62;2.47;1.87;;;28.10;25.00;;;;;;2268186;61;20403;-63
2023/07/26 08:12:26;0.00;0.00;0.62;0.00;0.00;0.62;1.90;1.37;;;28.20;25.10;;;;;;2268331;61;20391;-63
2023/07/26 08:15:13;0.00;0.00;0.62;0.00;0.00;0.62;2.23;1.43;;;28.20;25.10;;;;;;2268425;61;20383;-66
2023/07/26 08:17:57;0.00;0.00;0.62;0.00;0.00;0.62;2.80;1.60;;;28.10;25.10;;;;;;2268327;61;20422;-63
2023/07/26 08:20:42;0.00;0.00;0.62;0.00;0.00;0.62;2.30;1.60;;;28.20;25.10;;;;;;2268317;61;20359;-64
2023/07/26 08:23:27;0.00;0.00;0.62;0.00;0.00;0.62;2.27;1.70;;;28.10;25.10;;;;;;2265181;61;20928;-62
2023/07/26 08:26:12;0.00;0.00;0.62;0.00;0.00;0.62;3.43;1.83;;;28.10;25.10;;;;;;2266959;61;20872;-60
2023/07/26 08:28:56;0.00;0.00;0.62;0.00;0.00;0.62;2.00;1.40;;;28.10;25.10;;;;;;2263815;61;20462;-61
2023/07/26 08:31:42;0.00;0.00;0.62;0.00;0.00;0.62;2.20;1.70;;;28.20;25.20;;;;;;2264485;61;20360;-63
2023/07/26 08:34:27;0.00;0.00;0.62;0.00;0.00;0.62;2.07;1.60;;;28.10;25.10;;;;;;2264491;61;20810;-63
2023/07/26 08:37:12;0.00;0.00;0.62;0.00;0.00;0.62;3.17;1.50;;;28.20;25.10;;;;;;2264192;61;20379;-64
2023/07/26 08:39:56;0.00;0.00;0.62;0.00;0.00;0.62;2.80;1.70;;;28.20;25.10;;;;;;2263787;61;20440;-63
2023/07/26 08:42:42;0.00;0.00;0.62;0.00;0.00;0.62;2.90;2.00;;;28.20;25.20;;;;;;2264380;61;20403;-60
2023/07/26 08:45:27;0.00;0.00;0.62;0.00;0.00;0.62;2.27;1.67;;;28.20;25.20;;;;;;2264169;61;20916;-66
2023/07/26 08:48:13;0.00;0.00;0.62;0.00;0.00;0.62;2.03;1.30;;;28.10;25.10;;;;;;2264272;61;20400;-64
2023/07/26 08:51:00;0.00;0.00;0.62;0.00;0.00;0.62;1.80;1.30;;;28.20;25.20;;;;;;2264126;61;20421;-61
2023/07/26 08:53:45;0.00;0.00;0.62;0.00;0.00;0.62;1.90;1.20;;;28.10;25.10;;;;;;2264253;61;20431;-63
2023/07/26 08:56:30;0.00;0.00;0.62;0.00;0.00;0.62;2.10;1.60;;;28.20;25.20;;;;;;2264380;61;20371;-62
2023/07/26 08:59:15;0.00;0.00;0.62;0.00;0.00;0.62;2.43;1.80;;;28.20;25.20;;;;;;2263455;61;20383;-64
2023/07/26 09:02:02;0.00;0.00;0.62;0.00;0.00;0.62;2.57;1.60;;;28.20;25.20;;;;;;2264552;61;20411;-63
2023/07/26 09:04:48;0.00;0.00;0.62;0.00;0.00;0.62;2.20;1.70;;;28.20;25.20;;;;;;2264264;61;20410;-63
2023/07/26 09:07:34;0.00;0.00;0.62;0.00;0.00;0.62;2.50;1.80;;;28.20;25.20;;;;;;2264010;61;20472;-63
2023/07/26 09:10:22;0.00;0.00;0.62;0.00;0.00;0.62;4.00;1.87;;;28.20;25.20;;;;;;2264115;61;20771;-63
2023/07/26 09:13:08;0.00;0.00;0.62;0.00;0.00;0.62;2.87;1.80;;;28.20;25.20;;;;;;2263840;61;20365;-61
2023/07/26 09:15:54;0.00;0.00;0.62;0.00;0.00;0.62;2.03;1.63;;;28.20;25.80;;;;;;2264361;61;20383;-63
2023/07/26 09:18:55;0.00;0.00;0.62;0.00;0.00;0.62;2.27;1.80;;;28.20;25.20;;;;;;2263999;61;20461;-63
2023/07/26 09:21:41;0.00;0.00;0.62;0.00;0.00;0.62;2.00;1.60;;;28.20;25.30;;;;;;2264244;61;20364;-60
2023/07/26 09:24:30;0.00;0.00;0.62;0.00;0.00;0.62;2.57;1.80;;;28.20;25.20;;;;;;2264375;61;20901;-65
2023/07/26 09:27:19;0.00;0.00;0.62;0.00;0.00;0.62;2.37;1.90;;;28.20;25.20;;;;;;2267620;61;20429;-63
2023/07/26 09:30:05;0.00;0.00;0.62;0.00;0.00;0.62;2.17;1.63;;;28.20;25.20;;;;;;2267889;61;20388;-63
2023/07/26 09:32:50;0.00;0.00;0.62;0.00;0.00;0.62;4.13;2.03;;;28.20;25.20;;;;;;2268566;61;20395;-61
2023/07/26 09:35:43;0.00;0.00;0.62;0.00;0.00;0.62;2.27;1.80;;;28.20;25.20;;;;;;2267706;61;20542;-63
2023/07/26 09:38:30;0.00;0.00;0.62;0.00;0.00;0.62;2.60;1.90;;;28.20;25.20;;;;;;2272976;40;20440;-61
2023/07/26 09:41:23;0.00;0.00;0.62;0.00;0.00;0.62;1.90;1.40;;;28.30;25.30;;;;;;2260049;61;20491;-63
2023/07/26 09:44:16;0.00;0.00;0.62;0.00;0.00;0.62;2.80;1.80;;;28.20;25.20;;;;;;2260013;61;20396;-63
2023/07/26 09:47:03;0.00;0.00;0.62;0.00;0.00;0.62;2.30;1.80;;;28.20;25.20;;;;;;2260431;61;20894;-63
2023/07/26 09:49:50;0.00;0.00;0.62;0.00;0.00;0.62;2.10;1.70;;;28.30;25.30;;;;;;2263334;61;20371;-63
2023/07/26 09:52:37;0.00;0.00;0.62;0.00;0.00;0.62;2.60;1.90;;;28.30;25.30;;;;;;2264264;61;20356;-63
2023/07/26 09:55:25;0.00;0.00;0.62;0.00;0.00;0.62;4.47;1.97;;;28.30;25.30;;;;;;2259903;61;20419;-63
2023/07/26 09:58:11;0.00;0.00;0.62;0.00;0.00;0.62;2.10;1.60;;;28.20;25.20;;;;;;2263696;61;20388;-62
2023/07/26 10:00:59;0.00;0.00;0.62;0.00;0.00;0.62;2.20;1.63;;;28.30;25.30;;;;;;2264289;61;20378;-62
2023/07/26 10:03:49;0.00;0.00;0.62;0.00;0.00;0.62;2.10;1.80;;;28.30;25.30;;;;;;2263952;61;20360;-63
2023/07/26 10:06:35;0.00;0.00;0.62;0.00;0.00;0.62;3.30;2.20;;;28.30;25.30;;;;;;2264119;61;20399;-63
2023/07/26 10:09:23;0.00;0.00;0.62;0.00;0.00;0.62;2.47;1.53;;;28.30;25.30;;;;;;2263725;61;20967;-63
2023/07/26 10:12:10;0.00;0.00;0.62;0.00;0.00;0.62;3.90;1.60;;;28.30;25.30;;;;;;2263716;61;20386;-63
2023/07/26 10:14:56;0.00;0.00;0.62;0.00;0.00;0.62;2.20;1.63;;;28.30;25.30;;;;;;2264176;61;20406;-63
2023/07/26 10:17:42;0.00;0.00;0.62;0.00;0.00;0.62;2.10;1.57;;;28.30;25.30;;;;;;2264173;61;20484;-63
2023/07/26 10:20:27;0.00;0.00;0.62;0.00;0.00;0.62;2.27;1.50;;;28.30;25.30;;;;;;2263486;61;20364;-63
2023/07/26 10:23:12;0.00;0.00;0.62;0.00;0.00;0.62;2.50;1.93;;;28.30;25.30;;;;;;2263889;61;20395;-63
2023/07/26 10:26:00;0.00;0.00;0.62;0.00;0.00;0.62;2.90;2.30;;;28.30;25.30;;;;;;2267307;61;20359;-63
2023/07/26 10:28:46;0.00;0.00;0.62;0.00;0.00;0.62;3.30;2.27;;;28.30;25.30;;;;;;2276707;40;20399;-63
2023/07/26 10:31:32;0.00;0.00;0.62;0.00;0.00;0.62;1.90;1.60;;;28.30;25.30;;;;;;2264009;61;20571;-63
2023/07/26 10:34:20;0.00;0.00;0.62;0.00;0.00;0.62;2.70;2.00;;;28.30;25.30;;;;;;2263771;61;20388;-63
2023/07/26 10:37:16;0.00;0.00;0.62;0.00;0.00;0.62;2.27;1.90;;;28.30;25.30;;;;;;2264438;61;20498;-63
2023/07/26 10:40:28;0.00;0.00;0.62;0.00;0.00;0.62;2.77;2.03;;;28.30;25.30;;;;;;2263742;61;20402;-63
2023/07/26 10:43:39;0.00;0.00;0.62;0.00;0.00;0.62;3.03;2.30;;;28.30;25.30;;;;;;2259734;61;20460;-63
2023/07/26 10:46:26;0.00;0.00;0.62;0.00;0.00;0.62;2.93;2.40;;;28.30;25.30;;;;;;2264019;61;20406;-63
2023/07/26 10:49:20;0.00;0.00;0.62;0.00;0.00;0.62;2.37;1.97;;;28.30;25.30;;;;;;2263281;61;20376;-63
2023/07/26 10:52:06;0.00;0.00;0.62;0.00;0.00;0.62;2.57;1.87;;;28.30;25.30;;;;;;2263975;61;20390;-63
2023/07/26 10:54:51;0.00;0.00;0.62;0.00;0.00;0.62;2.93;2.30;;;28.30;25.30;;;;;;2263905;61;20490;-63